sensor_id;sensor_type;location;lat;lon;timestamp;P1;durP1;ratioP1;P2;durP2;ratioP2
78740;SDS011;68062;48.726;9.370;2024-03-08T00:00:15;29.10;;;18.80;;
78740;SDS011;68062;48.726;9.370;2024-03-08T00:02:46;25.77;;;17.43;;
78740;SDS011;68062;48.726;9.370;2024-03-08T00:05:17;28.00;;;18.57;;
78740;SDS011;68062;48.726;9.370;2024-03-08T00:07:46;29.90;;;18.83;;
78740;SDS011;68062;48.726;9.370;2024-03-08T00:10:14;29.00;;;19.53;;
78740;SDS011;68062;48.726;9.370;2024-03-08T00:12:44;29.93;;;18.87;;
78740;SDS011;68062;48.726;9.370;2024-03-08T00:15:15;31.13;;;19.43;;
78740;SDS011;68062;48.726;9.370;2024-03-08T00:17:46;31.60;;;19.20;;
78740;SDS011;68062;48.726;9.370;2024-03-08T00:20:14;29.53;;;18.37;;
78740;SDS011;68062;48.726;9.370;2024-03-08T00:22:45;27.80;;;17.87;;
78740;SDS011;68062;48.726;9.370;2024-03-08T00:25:14;27.13;;;19.57;;
78740;SDS011;68062;48.726;9.370;2024-03-08T00:27:42;28.53;;;19.50;;
78740;SDS011;68062;48.726;9.370;2024-03-08T00:30:10;28.23;;;18.80;;
78740;SDS011;68062;48.726;9.370;2024-03-08T00:32:41;25.07;;;17.23;;
78740;SDS011;68062;48.726;9.370;2024-03-08T00:35:10;31.20;;;19.73;;
78740;SDS011;68062;48.726;9.370;2024-03-08T00:37:39;28.03;;;19.10;;
78740;SDS011;68062;48.726;9.370;2024-03-08T00:40:08;26.70;;;17.47;;
78740;SDS011;68062;48.726;9.370;2024-03-08T00:42:37;29.93;;;19.57;;
78740;SDS011;68062;48.726;9.370;2024-03-08T00:45:06;26.90;;;17.47;;
78740;SDS011;68062;48.726;9.370;2024-03-08T00:47:36;26.20;;;16.90;;
78740;SDS011;68062;48.726;9.370;2024-03-08T00:50:07;28.10;;;17.47;;
78740;SDS011;68062;48.726;9.370;2024-03-08T00:52:36;28.10;;;18.40;;
78740;SDS011;68062;48.726;9.370;2024-03-08T00:55:04;31.40;;;19.00;;
78740;SDS011;68062;48.726;9.370;2024-03-08T00:57:32;29.30;;;18.43;;
78740;SDS011;68062;48.726;9.370;2024-03-08T01:00:02;27.17;;;18.73;;
78740;SDS011;68062;48.726;9.370;2024-03-08T01:02:32;27.13;;;17.10;;
78740;SDS011;68062;48.726;9.370;2024-03-08T01:05:02;26.17;;;17.00;;
78740;SDS011;68062;48.726;9.370;2024-03-08T01:07:35;31.17;;;19.50;;
78740;SDS011;68062;48.726;9.370;2024-03-08T01:10:03;29.53;;;19.30;;
78740;SDS011;68062;48.726;9.370;2024-03-08T01:12:36;30.33;;;19.70;;
78740;SDS011;68062;48.726;9.370;2024-03-08T01:15:04;28.13;;;17.63;;
78740;SDS011;68062;48.726;9.370;2024-03-08T01:17:33;33.10;;;19.47;;
78740;SDS011;68062;48.726;9.370;2024-03-08T01:20:02;27.30;;;18.47;;
78740;SDS011;68062;48.726;9.370;2024-03-08T01:22:30;32.20;;;18.57;;
78740;SDS011;68062;48.726;9.370;2024-03-08T01:24:59;32.23;;;18.80;;
78740;SDS011;68062;48.726;9.370;2024-03-08T01:27:27;24.73;;;17.17;;
78740;SDS011;68062;48.726;9.370;2024-03-08T01:29:55;27.67;;;18.30;;
78740;SDS011;68062;48.726;9.370;2024-03-08T01:32:23;31.67;;;19.40;;
78740;SDS011;68062;48.726;9.370;2024-03-08T01:34:51;28.03;;;19.33;;
78740;SDS011;68062;48.726;9.370;2024-03-08T01:37:19;29.87;;;18.70;;
78740;SDS011;68062;48.726;9.370;2024-03-08T01:39:47;33.20;;;18.37;;
78740;SDS011;68062;48.726;9.370;2024-03-08T01:42:17;27.60;;;17.90;;
78740;SDS011;68062;48.726;9.370;2024-03-08T01:44:45;27.13;;;17.77;;
78740;SDS011;68062;48.726;9.370;2024-03-08T01:47:13;27.13;;;17.73;;
78740;SDS011;68062;48.726;9.370;2024-03-08T01:49:40;27.83;;;17.73;;
78740;SDS011;68062;48.726;9.370;2024-03-08T01:52:09;29.40;;;17.90;;
78740;SDS011;68062;48.726;9.370;2024-03-08T01:54:37;26.77;;;17.77;;
78740;SDS011;68062;48.726;9.370;2024-03-08T01:57:07;30.07;;;17.47;;
78740;SDS011;68062;48.726;9.370;2024-03-08T01:59:37;31.87;;;18.43;;
78740;SDS011;68062;48.726;9.370;2024-03-08T02:02:05;26.67;;;18.27;;
78740;SDS011;68062;48.726;9.370;2024-03-08T02:04:36;25.10;;;17.27;;
78740;SDS011;68062;48.726;9.370;2024-03-08T02:07:05;22.53;;;15.77;;
78740;SDS011;68062;48.726;9.370;2024-03-08T02:09:36;25.00;;;16.87;;
78740;SDS011;68062;48.726;9.370;2024-03-08T02:12:04;28.23;;;16.40;;
78740;SDS011;68062;48.726;9.370;2024-03-08T02:14:37;25.10;;;15.50;;
78740;SDS011;68062;48.726;9.370;2024-03-08T02:17:06;26.53;;;17.00;;
78740;SDS011;68062;48.726;9.370;2024-03-08T02:19:34;27.63;;;16.53;;
78740;SDS011;68062;48.726;9.370;2024-03-08T02:22:04;22.37;;;15.53;;
78740;SDS011;68062;48.726;9.370;2024-03-08T02:24:33;22.20;;;15.90;;
78740;SDS011;68062;48.726;9.370;2024-03-08T02:27:02;25.33;;;15.43;;
78740;SDS011;68062;48.726;9.370;2024-03-08T02:29:30;27.27;;;16.53;;
78740;SDS011;68062;48.726;9.370;2024-03-08T02:32:00;23.80;;;14.60;;
78740;SDS011;68062;48.726;9.370;2024-03-08T02:34:29;24.27;;;16.10;;
78740;SDS011;68062;48.726;9.370;2024-03-08T02:36:58;26.20;;;16.57;;
78740;SDS011;68062;48.726;9.370;2024-03-08T02:39:28;25.30;;;17.00;;
78740;SDS011;68062;48.726;9.370;2024-03-08T02:41:55;27.23;;;16.70;;
78740;SDS011;68062;48.726;9.370;2024-03-08T02:44:23;24.43;;;15.73;;
78740;SDS011;68062;48.726;9.370;2024-03-08T02:46:51;21.83;;;15.20;;
78740;SDS011;68062;48.726;9.370;2024-03-08T02:49:21;25.73;;;16.37;;
78740;SDS011;68062;48.726;9.370;2024-03-08T02:51:49;23.53;;;14.87;;
78740;SDS011;68062;48.726;9.370;2024-03-08T02:54:17;26.30;;;17.13;;
78740;SDS011;68062;48.726;9.370;2024-03-08T02:56:47;23.80;;;16.87;;
78740;SDS011;68062;48.726;9.370;2024-03-08T02:59:16;24.43;;;15.87;;
78740;SDS011;68062;48.726;9.370;2024-03-08T03:01:45;23.67;;;16.17;;
78740;SDS011;68062;48.726;9.370;2024-03-08T03:04:13;29.10;;;16.50;;
78740;SDS011;68062;48.726;9.370;2024-03-08T03:06:41;24.17;;;17.00;;
78740;SDS011;68062;48.726;9.370;2024-03-08T03:09:09;30.00;;;16.83;;
78740;SDS011;68062;48.726;9.370;2024-03-08T03:11:37;28.57;;;16.87;;
78740;SDS011;68062;48.726;9.370;2024-03-08T03:14:06;23.77;;;16.03;;
78740;SDS011;68062;48.726;9.370;2024-03-08T03:16:35;24.20;;;17.23;;
78740;SDS011;68062;48.726;9.370;2024-03-08T03:19:03;28.60;;;16.57;;
78740;SDS011;68062;48.726;9.370;2024-03-08T03:21:32;26.30;;;16.40;;
78740;SDS011;68062;48.726;9.370;2024-03-08T03:24:02;27.77;;;17.27;;
78740;SDS011;68062;48.726;9.370;2024-03-08T03:26:31;26.83;;;16.90;;
78740;SDS011;68062;48.726;9.370;2024-03-08T03:28:59;28.07;;;17.37;;
78740;SDS011;68062;48.726;9.370;2024-03-08T03:31:31;28.40;;;16.73;;
78740;SDS011;68062;48.726;9.370;2024-03-08T03:33:59;26.80;;;17.47;;
78740;SDS011;68062;48.726;9.370;2024-03-08T03:36:29;30.47;;;19.27;;
78740;SDS011;68062;48.726;9.370;2024-03-08T03:38:57;24.83;;;16.83;;
78740;SDS011;68062;48.726;9.370;2024-03-08T03:41:37;25.30;;;19.10;;
78740;SDS011;68062;48.726;9.370;2024-03-08T03:44:05;26.93;;;18.20;;
78740;SDS011;68062;48.726;9.370;2024-03-08T03:46:35;26.07;;;16.90;;
78740;SDS011;68062;48.726;9.370;2024-03-08T03:49:03;24.60;;;16.27;;
78740;SDS011;68062;48.726;9.370;2024-03-08T03:51:31;29.93;;;18.70;;
78740;SDS011;68062;48.726;9.370;2024-03-08T03:53:59;29.07;;;18.10;;
78740;SDS011;68062;48.726;9.370;2024-03-08T03:56:27;28.40;;;18.20;;
78740;SDS011;68062;48.726;9.370;2024-03-08T03:58:55;31.43;;;19.53;;
78740;SDS011;68062;48.726;9.370;2024-03-08T04:01:23;27.83;;;17.23;;
78740;SDS011;68062;48.726;9.370;2024-03-08T04:03:52;30.53;;;17.90;;
78740;SDS011;68062;48.726;9.370;2024-03-08T04:06:20;27.40;;;18.47;;
78740;SDS011;68062;48.726;9.370;2024-03-08T04:08:49;33.37;;;19.23;;
78740;SDS011;68062;48.726;9.370;2024-03-08T04:11:17;28.40;;;18.30;;
78740;SDS011;68062;48.726;9.370;2024-03-08T04:13:45;29.60;;;19.10;;
78740;SDS011;68062;48.726;9.370;2024-03-08T04:16:13;32.43;;;18.40;;
78740;SDS011;68062;48.726;9.370;2024-03-08T04:18:41;25.90;;;17.83;;
78740;SDS011;68062;48.726;9.370;2024-03-08T04:21:11;26.03;;;18.57;;
78740;SDS011;68062;48.726;9.370;2024-03-08T04:23:39;27.03;;;17.50;;
78740;SDS011;68062;48.726;9.370;2024-03-08T04:26:07;24.87;;;17.47;;
78740;SDS011;68062;48.726;9.370;2024-03-08T04:28:35;28.47;;;18.10;;
78740;SDS011;68062;48.726;9.370;2024-03-08T04:31:06;31.47;;;19.93;;
78740;SDS011;68062;48.726;9.370;2024-03-08T04:33:34;27.60;;;18.93;;
78740;SDS011;68062;48.726;9.370;2024-03-08T04:36:02;32.43;;;19.50;;
78740;SDS011;68062;48.726;9.370;2024-03-08T04:38:32;28.80;;;18.80;;
78740;SDS011;68062;48.726;9.370;2024-03-08T04:41:00;29.83;;;18.97;;
78740;SDS011;68062;48.726;9.370;2024-03-08T04:43:28;30.30;;;18.20;;
78740;SDS011;68062;48.726;9.370;2024-03-08T04:45:56;32.33;;;19.63;;
78740;SDS011;68062;48.726;9.370;2024-03-08T04:48:25;27.40;;;17.70;;
78740;SDS011;68062;48.726;9.370;2024-03-08T04:50:53;29.13;;;19.07;;
78740;SDS011;68062;48.726;9.370;2024-03-08T04:53:22;31.77;;;19.40;;
78740;SDS011;68062;48.726;9.370;2024-03-08T04:55:52;27.63;;;19.30;;
78740;SDS011;68062;48.726;9.370;2024-03-08T04:58:20;29.77;;;17.90;;
78740;SDS011;68062;48.726;9.370;2024-03-08T05:00:47;28.30;;;18.90;;
78740;SDS011;68062;48.726;9.370;2024-03-08T05:03:16;28.60;;;19.67;;
78740;SDS011;68062;48.726;9.370;2024-03-08T05:05:44;31.23;;;19.53;;
78740;SDS011;68062;48.726;9.370;2024-03-08T05:08:12;30.87;;;18.73;;
78740;SDS011;68062;48.726;9.370;2024-03-08T05:10:40;34.67;;;20.00;;
78740;SDS011;68062;48.726;9.370;2024-03-08T05:13:10;30.40;;;19.37;;
78740;SDS011;68062;48.726;9.370;2024-03-08T05:15:39;29.80;;;18.30;;
78740;SDS011;68062;48.726;9.370;2024-03-08T05:18:07;28.40;;;18.53;;
78740;SDS011;68062;48.726;9.370;2024-03-08T05:20:38;32.17;;;19.10;;
78740;SDS011;68062;48.726;9.370;2024-03-08T05:23:07;29.70;;;18.37;;
78740;SDS011;68062;48.726;9.370;2024-03-08T05:25:36;31.57;;;19.30;;
78740;SDS011;68062;48.726;9.370;2024-03-08T05:28:04;32.13;;;19.50;;
78740;SDS011;68062;48.726;9.370;2024-03-08T05:30:34;34.83;;;20.97;;
78740;SDS011;68062;48.726;9.370;2024-03-08T05:33:03;37.00;;;21.47;;
78740;SDS011;68062;48.726;9.370;2024-03-08T05:35:31;35.70;;;20.23;;
78740;SDS011;68062;48.726;9.370;2024-03-08T05:38:00;30.20;;;20.67;;
78740;SDS011;68062;48.726;9.370;2024-03-08T05:40:28;34.37;;;21.97;;
78740;SDS011;68062;48.726;9.370;2024-03-08T05:42:58;31.40;;;20.80;;
78740;SDS011;68062;48.726;9.370;2024-03-08T05:45:26;33.87;;;21.37;;
78740;SDS011;68062;48.726;9.370;2024-03-08T05:47:56;32.50;;;20.03;;
78740;SDS011;68062;48.726;9.370;2024-03-08T05:50:24;35.83;;;20.90;;
78740;SDS011;68062;48.726;9.370;2024-03-08T05:52:54;34.80;;;19.53;;
78740;SDS011;68062;48.726;9.370;2024-03-08T05:55:21;34.20;;;20.63;;
78740;SDS011;68062;48.726;9.370;2024-03-08T05:57:51;32.97;;;20.27;;
78740;SDS011;68062;48.726;9.370;2024-03-08T06:00:20;34.07;;;21.07;;
78740;SDS011;68062;48.726;9.370;2024-03-08T06:02:49;29.17;;;19.57;;
78740;SDS011;68062;48.726;9.370;2024-03-08T06:05:19;30.90;;;20.73;;
78740;SDS011;68062;48.726;9.370;2024-03-08T06:07:49;33.40;;;21.53;;
78740;SDS011;68062;48.726;9.370;2024-03-08T06:10:19;34.40;;;21.60;;
78740;SDS011;68062;48.726;9.370;2024-03-08T06:12:47;31.07;;;20.33;;
78740;SDS011;68062;48.726;9.370;2024-03-08T06:15:17;29.80;;;19.10;;
78740;SDS011;68062;48.726;9.370;2024-03-08T06:17:47;30.60;;;19.00;;
78740;SDS011;68062;48.726;9.370;2024-03-08T06:20:16;32.30;;;21.70;;
78740;SDS011;68062;48.726;9.370;2024-03-08T06:22:45;31.40;;;20.40;;
78740;SDS011;68062;48.726;9.370;2024-03-08T06:25:13;32.97;;;20.40;;
78740;SDS011;68062;48.726;9.370;2024-03-08T06:27:42;34.73;;;21.57;;
78740;SDS011;68062;48.726;9.370;2024-03-08T06:30:10;29.73;;;19.50;;
78740;SDS011;68062;48.726;9.370;2024-03-08T06:32:39;29.97;;;19.30;;
78740;SDS011;68062;48.726;9.370;2024-03-08T06:35:09;30.43;;;18.63;;
78740;SDS011;68062;48.726;9.370;2024-03-08T06:37:38;35.60;;;22.10;;
78740;SDS011;68062;48.726;9.370;2024-03-08T06:40:07;33.77;;;21.10;;
78740;SDS011;68062;48.726;9.370;2024-03-08T06:42:40;28.13;;;19.90;;
78740;SDS011;68062;48.726;9.370;2024-03-08T06:45:09;36.67;;;21.20;;
78740;SDS011;68062;48.726;9.370;2024-03-08T06:47:39;31.50;;;21.07;;
78740;SDS011;68062;48.726;9.370;2024-03-08T06:50:09;30.40;;;20.90;;
78740;SDS011;68062;48.726;9.370;2024-03-08T06:52:38;32.50;;;20.87;;
78740;SDS011;68062;48.726;9.370;2024-03-08T06:55:08;29.60;;;19.53;;
78740;SDS011;68062;48.726;9.370;2024-03-08T06:57:38;33.63;;;19.00;;
78740;SDS011;68062;48.726;9.370;2024-03-08T07:00:07;26.50;;;18.77;;
78740;SDS011;68062;48.726;9.370;2024-03-08T07:02:38;31.63;;;19.37;;
78740;SDS011;68062;48.726;9.370;2024-03-08T07:05:07;30.00;;;20.23;;
78740;SDS011;68062;48.726;9.370;2024-03-08T07:07:37;29.00;;;18.47;;
78740;SDS011;68062;48.726;9.370;2024-03-08T07:10:09;25.33;;;18.20;;
78740;SDS011;68062;48.726;9.370;2024-03-08T07:12:41;27.63;;;17.40;;
78740;SDS011;68062;48.726;9.370;2024-03-08T07:15:09;29.37;;;18.83;;
78740;SDS011;68062;48.726;9.370;2024-03-08T07:17:40;24.70;;;17.07;;
78740;SDS011;68062;48.726;9.370;2024-03-08T07:20:11;32.40;;;20.30;;
78740;SDS011;68062;48.726;9.370;2024-03-08T07:22:40;30.37;;;17.77;;
78740;SDS011;68062;48.726;9.370;2024-03-08T07:25:12;31.10;;;18.10;;
78740;SDS011;68062;48.726;9.370;2024-03-08T07:27:48;24.43;;;18.20;;
78740;SDS011;68062;48.726;9.370;2024-03-08T07:30:18;27.77;;;19.03;;
78740;SDS011;68062;48.726;9.370;2024-03-08T07:33:00;27.43;;;18.73;;
78740;SDS011;68062;48.726;9.370;2024-03-08T07:35:29;31.10;;;17.13;;
78740;SDS011;68062;48.726;9.370;2024-03-08T07:37:57;26.17;;;17.90;;
78740;SDS011;68062;48.726;9.370;2024-03-08T07:40:27;27.50;;;19.23;;
78740;SDS011;68062;48.726;9.370;2024-03-08T07:42:55;24.53;;;17.77;;
78740;SDS011;68062;48.726;9.370;2024-03-08T07:45:25;25.93;;;17.23;;
78740;SDS011;68062;48.726;9.370;2024-03-08T07:47:53;27.00;;;17.73;;
78740;SDS011;68062;48.726;9.370;2024-03-08T07:50:22;27.43;;;19.00;;
78740;SDS011;68062;48.726;9.370;2024-03-08T07:52:50;29.60;;;18.83;;
78740;SDS011;68062;48.726;9.370;2024-03-08T07:55:18;26.03;;;17.93;;
78740;SDS011;68062;48.726;9.370;2024-03-08T07:57:48;25.33;;;17.80;;
78740;SDS011;68062;48.726;9.370;2024-03-08T08:00:16;27.30;;;18.10;;
78740;SDS011;68062;48.726;9.370;2024-03-08T08:02:45;28.80;;;18.87;;
78740;SDS011;68062;48.726;9.370;2024-03-08T08:05:13;28.33;;;18.27;;
78740;SDS011;68062;48.726;9.370;2024-03-08T08:07:43;27.57;;;17.00;;
78740;SDS011;68062;48.726;9.370;2024-03-08T08:10:15;27.73;;;18.00;;
78740;SDS011;68062;48.726;9.370;2024-03-08T08:12:45;29.30;;;19.27;;
78740;SDS011;68062;48.726;9.370;2024-03-08T08:15:15;28.00;;;19.20;;
78740;SDS011;68062;48.726;9.370;2024-03-08T08:17:43;32.00;;;18.17;;
78740;SDS011;68062;48.726;9.370;2024-03-08T08:20:11;28.83;;;17.80;;
78740;SDS011;68062;48.726;9.370;2024-03-08T08:22:40;30.50;;;20.00;;
78740;SDS011;68062;48.726;9.370;2024-03-08T08:25:10;30.63;;;19.73;;
78740;SDS011;68062;48.726;9.370;2024-03-08T08:27:40;25.33;;;16.73;;
78740;SDS011;68062;48.726;9.370;2024-03-08T08:30:11;29.00;;;18.27;;
78740;SDS011;68062;48.726;9.370;2024-03-08T08:32:42;26.50;;;16.90;;
78740;SDS011;68062;48.726;9.370;2024-03-08T08:35:11;29.80;;;19.30;;
78740;SDS011;68062;48.726;9.370;2024-03-08T08:37:40;25.40;;;18.00;;
78740;SDS011;68062;48.726;9.370;2024-03-08T08:40:08;24.23;;;15.90;;
78740;SDS011;68062;48.726;9.370;2024-03-08T08:42:42;28.17;;;18.17;;
78740;SDS011;68062;48.726;9.370;2024-03-08T08:45:10;25.70;;;17.00;;
78740;SDS011;68062;48.726;9.370;2024-03-08T08:47:45;25.73;;;18.73;;
78740;SDS011;68062;48.726;9.370;2024-03-08T08:50:13;24.73;;;17.30;;
78740;SDS011;68062;48.726;9.370;2024-03-08T08:52:43;25.33;;;17.83;;
78740;SDS011;68062;48.726;9.370;2024-03-08T08:55:11;24.80;;;16.53;;
78740;SDS011;68062;48.726;9.370;2024-03-08T08:57:41;27.70;;;17.00;;
78740;SDS011;68062;48.726;9.370;2024-03-08T09:00:11;27.90;;;16.27;;
78740;SDS011;68062;48.726;9.370;2024-03-08T09:02:42;26.00;;;16.77;;
78740;SDS011;68062;48.726;9.370;2024-03-08T09:05:12;24.40;;;16.33;;
78740;SDS011;68062;48.726;9.370;2024-03-08T09:07:48;28.67;;;16.83;;
78740;SDS011;68062;48.726;9.370;2024-03-08T09:10:16;26.00;;;17.40;;
78740;SDS011;68062;48.726;9.370;2024-03-08T09:12:45;23.47;;;15.33;;
78740;SDS011;68062;48.726;9.370;2024-03-08T09:15:14;25.70;;;16.50;;
78740;SDS011;68062;48.726;9.370;2024-03-08T09:17:47;24.67;;;15.63;;
78740;SDS011;68062;48.726;9.370;2024-03-08T09:20:17;20.40;;;15.13;;
78740;SDS011;68062;48.726;9.370;2024-03-08T09:22:45;28.70;;;18.83;;
78740;SDS011;68062;48.726;9.370;2024-03-08T09:25:13;23.63;;;16.50;;
78740;SDS011;68062;48.726;9.370;2024-03-08T09:27:41;22.77;;;16.07;;
78740;SDS011;68062;48.726;9.370;2024-03-08T09:30:10;21.40;;;15.40;;
78740;SDS011;68062;48.726;9.370;2024-03-08T09:32:42;20.30;;;15.17;;
78740;SDS011;68062;48.726;9.370;2024-03-08T09:35:10;23.00;;;15.07;;
78740;SDS011;68062;48.726;9.370;2024-03-08T09:37:40;20.80;;;14.60;;
78740;SDS011;68062;48.726;9.370;2024-03-08T09:40:08;21.87;;;14.87;;
78740;SDS011;68062;48.726;9.370;2024-03-08T09:42:37;23.13;;;16.30;;
78740;SDS011;68062;48.726;9.370;2024-03-08T09:45:05;27.47;;;16.30;;
78740;SDS011;68062;48.726;9.370;2024-03-08T09:47:37;22.33;;;15.90;;
78740;SDS011;68062;48.726;9.370;2024-03-08T09:50:08;21.97;;;15.50;;
78740;SDS011;68062;48.726;9.370;2024-03-08T09:52:40;24.70;;;15.47;;
78740;SDS011;68062;48.726;9.370;2024-03-08T09:55:10;24.10;;;15.60;;
78740;SDS011;68062;48.726;9.370;2024-03-08T09:57:39;24.13;;;16.83;;
78740;SDS011;68062;48.726;9.370;2024-03-08T10:00:10;23.37;;;15.77;;
78740;SDS011;68062;48.726;9.370;2024-03-08T10:02:51;21.73;;;15.37;;
78740;SDS011;68062;48.726;9.370;2024-03-08T10:05:20;24.13;;;16.47;;
78740;SDS011;68062;48.726;9.370;2024-03-08T10:07:51;22.43;;;15.57;;
78740;SDS011;68062;48.726;9.370;2024-03-08T10:10:19;22.97;;;14.50;;
78740;SDS011;68062;48.726;9.370;2024-03-08T10:12:48;23.37;;;16.50;;
78740;SDS011;68062;48.726;9.370;2024-03-08T10:15:16;26.37;;;16.33;;
78740;SDS011;68062;48.726;9.370;2024-03-08T10:17:44;21.80;;;15.57;;
78740;SDS011;68062;48.726;9.370;2024-03-08T10:20:13;22.10;;;15.73;;
78740;SDS011;68062;48.726;9.370;2024-03-08T10:22:42;23.37;;;14.97;;
78740;SDS011;68062;48.726;9.370;2024-03-08T10:25:29;25.03;;;15.17;;
78740;SDS011;68062;48.726;9.370;2024-03-08T10:27:57;22.87;;;16.10;;
78740;SDS011;68062;48.726;9.370;2024-03-08T10:30:25;24.37;;;16.70;;
78740;SDS011;68062;48.726;9.370;2024-03-08T10:32:54;22.87;;;15.20;;
78740;SDS011;68062;48.726;9.370;2024-03-08T10:35:22;20.60;;;15.43;;
78740;SDS011;68062;48.726;9.370;2024-03-08T10:37:51;19.67;;;15.00;;
78740;SDS011;68062;48.726;9.370;2024-03-08T10:40:26;22.37;;;15.23;;
78740;SDS011;68062;48.726;9.370;2024-03-08T10:42:56;22.47;;;16.07;;
78740;SDS011;68062;48.726;9.370;2024-03-08T10:45:35;24.17;;;15.77;;
78740;SDS011;68062;48.726;9.370;2024-03-08T10:51:04;20.07;;;15.40;;
78740;SDS011;68062;48.726;9.370;2024-03-08T10:53:34;21.77;;;14.50;;
78740;SDS011;68062;48.726;9.370;2024-03-08T10:56:06;28.40;;;16.80;;
78740;SDS011;68062;48.726;9.370;2024-03-08T10:58:37;26.73;;;16.33;;
78740;SDS011;68062;48.726;9.370;2024-03-08T11:01:06;21.60;;;15.00;;
78740;SDS011;68062;48.726;9.370;2024-03-08T11:03:46;25.53;;;15.83;;
78740;SDS011;68062;48.726;9.370;2024-03-08T11:06:22;23.20;;;15.80;;
78740;SDS011;68062;48.726;9.370;2024-03-08T11:08:56;24.03;;;16.40;;
78740;SDS011;68062;48.726;9.370;2024-03-08T11:11:25;24.57;;;16.97;;
78740;SDS011;68062;48.726;9.370;2024-03-08T11:14:01;24.10;;;15.90;;
78740;SDS011;68062;48.726;9.370;2024-03-08T11:16:37;25.37;;;15.20;;
78740;SDS011;68062;48.726;9.370;2024-03-08T11:19:23;26.43;;;17.67;;
78740;SDS011;68062;48.726;9.370;2024-03-08T11:21:59;22.27;;;15.80;;
78740;SDS011;68062;48.726;9.370;2024-03-08T11:24:31;21.53;;;15.87;;
78740;SDS011;68062;48.726;9.370;2024-03-08T11:27:06;24.20;;;16.70;;
78740;SDS011;68062;48.726;9.370;2024-03-08T11:29:37;22.43;;;15.70;;
78740;SDS011;68062;48.726;9.370;2024-03-08T11:32:10;20.97;;;15.30;;
78740;SDS011;68062;48.726;9.370;2024-03-08T11:34:40;23.47;;;16.27;;
78740;SDS011;68062;48.726;9.370;2024-03-08T11:37:13;23.47;;;16.63;;
78740;SDS011;68062;48.726;9.370;2024-03-08T11:39:49;23.80;;;15.67;;
78740;SDS011;68062;48.726;9.370;2024-03-08T11:42:18;21.63;;;16.73;;
78740;SDS011;68062;48.726;9.370;2024-03-08T11:44:50;24.50;;;17.50;;
78740;SDS011;68062;48.726;9.370;2024-03-08T11:47:19;22.67;;;16.43;;
78740;SDS011;68062;48.726;9.370;2024-03-08T11:49:47;22.80;;;15.57;;
78740;SDS011;68062;48.726;9.370;2024-03-08T11:52:16;20.63;;;15.13;;
78740;SDS011;68062;48.726;9.370;2024-03-08T11:54:49;22.27;;;16.47;;
78740;SDS011;68062;48.726;9.370;2024-03-08T11:57:21;23.00;;;16.33;;
78740;SDS011;68062;48.726;9.370;2024-03-08T11:59:52;23.33;;;15.77;;
78740;SDS011;68062;48.726;9.370;2024-03-08T12:02:23;27.00;;;16.97;;
78740;SDS011;68062;48.726;9.370;2024-03-08T12:04:55;23.80;;;17.37;;
78740;SDS011;68062;48.726;9.370;2024-03-08T12:07:24;23.50;;;17.00;;
78740;SDS011;68062;48.726;9.370;2024-03-08T12:12:44;24.10;;;16.43;;
78740;SDS011;68062;48.726;9.370;2024-03-08T12:15:14;24.97;;;17.33;;
78740;SDS011;68062;48.726;9.370;2024-03-08T12:17:42;24.63;;;17.20;;
78740;SDS011;68062;48.726;9.370;2024-03-08T12:20:14;21.07;;;15.40;;
78740;SDS011;68062;48.726;9.370;2024-03-08T12:22:44;21.83;;;16.30;;
78740;SDS011;68062;48.726;9.370;2024-03-08T12:25:15;21.40;;;16.30;;
78740;SDS011;68062;48.726;9.370;2024-03-08T12:27:43;23.23;;;17.63;;
78740;SDS011;68062;48.726;9.370;2024-03-08T12:30:21;22.80;;;15.33;;
78740;SDS011;68062;48.726;9.370;2024-03-08T12:32:54;20.43;;;15.63;;
78740;SDS011;68062;48.726;9.370;2024-03-08T12:35:25;27.83;;;17.50;;
78740;SDS011;68062;48.726;9.370;2024-03-08T12:37:54;24.40;;;17.80;;
78740;SDS011;68062;48.726;9.370;2024-03-08T12:40:29;31.57;;;17.53;;
78740;SDS011;68062;48.726;9.370;2024-03-08T12:42:58;24.20;;;17.97;;
78740;SDS011;68062;48.726;9.370;2024-03-08T12:45:28;23.27;;;16.90;;
78740;SDS011;68062;48.726;9.370;2024-03-08T12:47:56;23.00;;;16.30;;
78740;SDS011;68062;48.726;9.370;2024-03-08T12:50:26;22.50;;;17.63;;
78740;SDS011;68062;48.726;9.370;2024-03-08T12:52:53;21.87;;;17.27;;
78740;SDS011;68062;48.726;9.370;2024-03-08T12:55:22;22.93;;;16.43;;
78740;SDS011;68062;48.726;9.370;2024-03-08T12:57:50;25.77;;;19.23;;
78740;SDS011;68062;48.726;9.370;2024-03-08T13:00:20;23.77;;;16.63;;
78740;SDS011;68062;48.726;9.370;2024-03-08T13:02:51;24.20;;;18.27;;
78740;SDS011;68062;48.726;9.370;2024-03-08T13:05:19;26.50;;;18.63;;
78740;SDS011;68062;48.726;9.370;2024-03-08T13:07:48;30.13;;;23.17;;
78740;SDS011;68062;48.726;9.370;2024-03-08T13:10:16;46.63;;;33.93;;
78740;SDS011;68062;48.726;9.370;2024-03-08T13:12:47;22.80;;;17.67;;
78740;SDS011;68062;48.726;9.370;2024-03-08T13:15:20;25.50;;;19.60;;
78740;SDS011;68062;48.726;9.370;2024-03-08T13:17:49;21.23;;;16.13;;
78740;SDS011;68062;48.726;9.370;2024-03-08T13:20:18;27.60;;;18.27;;
78740;SDS011;68062;48.726;9.370;2024-03-08T13:22:56;22.30;;;17.47;;
78740;SDS011;68062;48.726;9.370;2024-03-08T13:25:28;26.00;;;18.07;;
78740;SDS011;68062;48.726;9.370;2024-03-08T13:27:56;22.23;;;15.77;;
78740;SDS011;68062;48.726;9.370;2024-03-08T13:30:26;24.73;;;17.83;;
78740;SDS011;68062;48.726;9.370;2024-03-08T13:32:54;23.77;;;16.60;;
78740;SDS011;68062;48.726;9.370;2024-03-08T13:35:25;23.70;;;16.47;;
78740;SDS011;68062;48.726;9.370;2024-03-08T13:37:57;25.20;;;17.10;;
78740;SDS011;68062;48.726;9.370;2024-03-08T13:40:24;21.30;;;16.10;;
78740;SDS011;68062;48.726;9.370;2024-03-08T13:42:52;20.07;;;16.73;;
78740;SDS011;68062;48.726;9.370;2024-03-08T13:45:20;21.57;;;16.30;;
78740;SDS011;68062;48.726;9.370;2024-03-08T13:47:51;23.53;;;16.87;;
78740;SDS011;68062;48.726;9.370;2024-03-08T13:50:21;21.57;;;16.20;;
78740;SDS011;68062;48.726;9.370;2024-03-08T13:52:51;24.00;;;15.90;;
78740;SDS011;68062;48.726;9.370;2024-03-08T13:55:22;22.20;;;17.70;;
78740;SDS011;68062;48.726;9.370;2024-03-08T13:57:52;22.67;;;16.97;;
78740;SDS011;68062;48.726;9.370;2024-03-08T14:00:21;24.20;;;17.83;;
78740;SDS011;68062;48.726;9.370;2024-03-08T14:02:49;23.53;;;16.50;;
78740;SDS011;68062;48.726;9.370;2024-03-08T14:05:17;21.10;;;17.00;;
78740;SDS011;68062;48.726;9.370;2024-03-08T14:07:46;24.60;;;17.70;;
78740;SDS011;68062;48.726;9.370;2024-03-08T14:10:17;25.00;;;17.70;;
78740;SDS011;68062;48.726;9.370;2024-03-08T14:12:48;22.50;;;17.80;;
78740;SDS011;68062;48.726;9.370;2024-03-08T14:15:17;23.67;;;17.53;;
78740;SDS011;68062;48.726;9.370;2024-03-08T14:17:52;23.13;;;18.80;;
78740;SDS011;68062;48.726;9.370;2024-03-08T14:20:20;19.87;;;16.60;;
78740;SDS011;68062;48.726;9.370;2024-03-08T14:22:52;25.03;;;17.93;;
78740;SDS011;68062;48.726;9.370;2024-03-08T14:25:23;23.87;;;17.20;;
78740;SDS011;68062;48.726;9.370;2024-03-08T14:27:52;23.77;;;17.03;;
78740;SDS011;68062;48.726;9.370;2024-03-08T14:30:24;23.80;;;17.87;;
78740;SDS011;68062;48.726;9.370;2024-03-08T14:33:07;21.50;;;16.60;;
78740;SDS011;68062;48.726;9.370;2024-03-08T14:35:36;24.27;;;18.07;;
78740;SDS011;68062;48.726;9.370;2024-03-08T14:38:04;24.37;;;18.20;;
78740;SDS011;68062;48.726;9.370;2024-03-08T14:40:36;20.70;;;15.87;;